Blandford Forum, United Kingdom
Current Conditions -  °F | °C
As of 12:20 PM on Monday 22 Dec 2014 (Local Time) from EGHH Reporting Station
Few Clouds Few Clouds  
Wind Chill: 54°   Ceiling: Unl
Heat Index: 54°   Visibility: 6mi
Dew Point: 48°   Wind: 21mph
Humidity: 82%   Direction: 240°WSW
Pressure: 30.12"   Gusts: 32mph
Location:  50.86°N, 2.16°W
Report Text: EGHH 221220Z 24018G28KT 9999 FEW016 12/09 Q1020
Loading
Personal Weather Stations






























Interactive Weather Map New forecast layout! Learn more

10-Day Weather Forecast

Advertisements
Track Severe Weather on mobile